Main page
Satellite images 15-day forecastsClimateMarine weather Cyclones Lightning AirportsFAQ Newsletter About
Weather : Europe Africa North America South America Asia Australia-Oceania Others
Languages Contact

London-Southend, England

latitude: 51-34N, longitude: 000-42E, elevation: 15 m


METAR: EGMC 271350Z VRB03KT 9999 FEW020 11/09 Q1002
TAF: EGMC 271101Z 2712/2721 16009KT 9999 FEW009 SCT020 PROB30 TEMPO 2716/2721 7000 BKN009

Time: 14:01 (14:01 UTC)

Current weather observation

The report was made 11 minutes ago, at 13:50 UTC
Wind 3 kt from variable directions
Temperature 11°C
Humidity 87%
Pressure 1002 hPa
Visibility 10 km or more
Few clouds at a height of 2000 ft

Change units

Forecast

The report was made 3 hours and 0 minutes ago, at 11:01 UTC
Forecast valid from 27 at 12 UTC to 27 at 21 UTC
Wind 9 kt from the South/Southeast
Visibility 10 km or more
Few clouds at a height of 900 ft
Scattered clouds at a height of 2000 ft
Probability 30% :
Temporary
from 27 at 16 UTC to 27 at 21 UTC
Visibility: 7000 m
Broken clouds at a height of 900 ft
The information on this site is subject to a disclaimer
Weather : Europe Africa North America South America Asia Australia-Oceania Others
Satellite images 15-day forecastsClimateMarine weather Cyclones Lightning AirportsFAQ Languages Contact Newsletter About